QTR15Q KJFK-OTHH
Flight info
| Callsign | QTR15Q |
|---|---|
| Flight time | N/A |
| Altitude | 33000 |
| Route | JFK5 BETTE DCT ACK DCT SAILE DCT DOVEY/M084F330 DCT 43N050W 4230N04000W/M084F350 41N030W 3930N02000W DCT GUNTI/N0487F350 DCT BUSEN DCT LASIB/N0484F370 DCT ROSAL DCT SANTA M744 CARBO UM744 MOS UA411 DAHRA UZ444 BNA UA411 MORJA DCT SONAK DCT DINUX DCT EVIRA DCT ARLOS DCT SALUN N705 MMA/N0477F390 P751 DASUM Y234 FYM M872 WEJ L604 KFA M691 LADNA N318 HAYYA |
| Aircraft | A35K/H-SDE2E3GHIJ3J4J5LM1ORWXY/LB1D1 |
Departure
| Time | 2026-05-08 05:34 |
|---|---|
| Airport | John F. Kennedy International Airport (KJFK) |
Arrival
| Time | N/A |
|---|---|
| Airport | Hamad International Airport (OTHH) |
| Time | Latitude | Longitude | Altitude | Speed | Heading |
|---|---|---|---|---|---|
| 2026-05-08 05:06 | 40.65082 | -73.79033 | 29 ft | 0 kts | 310° |
| 2026-05-08 05:18 | 40.65069 | -73.79011 | 28 ft | 4 kts | 304° |
| 2026-05-08 05:19 | 40.65055 | -73.78980 | 28 ft | 4 kts | 294° |
| 2026-05-08 05:19 | 40.65046 | -73.78947 | 27 ft | 4 kts | 276° |
| 2026-05-08 05:19 | 40.65049 | -73.78915 | 27 ft | 3 kts | 237° |
| 2026-05-08 05:19 | 40.65051 | -73.78911 | 26 ft | 0 kts | 234° |
| 2026-05-08 05:21 | 40.65050 | -73.78913 | 26 ft | 1 kts | 234° |
| 2026-05-08 05:22 | 40.65044 | -73.78925 | 28 ft | 2 kts | 236° |
| 2026-05-08 05:22 | 40.65032 | -73.78948 | 28 ft | 4 kts | 236° |
| 2026-05-08 05:22 | 40.65016 | -73.78983 | 29 ft | 5 kts | 241° |
| 2026-05-08 05:22 | 40.64997 | -73.79027 | 29 ft | 6 kts | 241° |
| 2026-05-08 05:23 | 40.64974 | -73.79082 | 29 ft | 7 kts | 241° |
| 2026-05-08 05:23 | 40.64947 | -73.79146 | 29 ft | 9 kts | 241° |
| 2026-05-08 05:23 | 40.64916 | -73.79219 | 29 ft | 9 kts | 240° |
| 2026-05-08 05:23 | 40.64882 | -73.79297 | 29 ft | 10 kts | 240° |
| 2026-05-08 05:24 | 40.64845 | -73.79384 | 29 ft | 11 kts | 241° |
| 2026-05-08 05:24 | 40.64805 | -73.79478 | 29 ft | 12 kts | 240° |
| 2026-05-08 05:24 | 40.64762 | -73.79577 | 29 ft | 13 kts | 237° |
| 2026-05-08 05:24 | 40.64691 | -73.79601 | 29 ft | 11 kts | 156° |
| 2026-05-08 05:25 | 40.64622 | -73.79545 | 29 ft | 12 kts | 149° |
| 2026-05-08 05:25 | 40.64541 | -73.79508 | 30 ft | 12 kts | 172° |
| 2026-05-08 05:25 | 40.64453 | -73.79497 | 30 ft | 13 kts | 176° |
| 2026-05-08 05:25 | 40.64362 | -73.79492 | 30 ft | 13 kts | 181° |
| 2026-05-08 05:26 | 40.64270 | -73.79498 | 30 ft | 14 kts | 183° |
| 2026-05-08 05:26 | 40.64173 | -73.79506 | 30 ft | 14 kts | 183° |
| 2026-05-08 05:26 | 40.64071 | -73.79476 | 28 ft | 16 kts | 146° |
| 2026-05-08 05:26 | 40.64006 | -73.79356 | 28 ft | 17 kts | 121° |
| 2026-05-08 05:27 | 40.63943 | -73.79218 | 29 ft | 18 kts | 121° |
| 2026-05-08 05:27 | 40.63879 | -73.79077 | 28 ft | 17 kts | 121° |
| 2026-05-08 05:27 | 40.63817 | -73.78941 | 30 ft | 17 kts | 121° |
| 2026-05-08 05:27 | 40.63759 | -73.78813 | 34 ft | 15 kts | 120° |
| 2026-05-08 05:28 | 40.63706 | -73.78697 | 35 ft | 15 kts | 121° |
| 2026-05-08 05:28 | 40.63651 | -73.78574 | 34 ft | 16 kts | 121° |
| 2026-05-08 05:28 | 40.63595 | -73.78450 | 35 ft | 16 kts | 121° |
| 2026-05-08 05:28 | 40.63532 | -73.78313 | 31 ft | 19 kts | 121° |
| 2026-05-08 05:29 | 40.63463 | -73.78160 | 31 ft | 20 kts | 121° |
| 2026-05-08 05:29 | 40.63392 | -73.77998 | 29 ft | 21 kts | 118° |
| 2026-05-08 05:29 | 40.63322 | -73.77838 | 32 ft | 19 kts | 121° |
| 2026-05-08 05:29 | 40.63253 | -73.77685 | 33 ft | 20 kts | 121° |
| 2026-05-08 05:30 | 40.63185 | -73.77535 | 35 ft | 19 kts | 120° |
| 2026-05-08 05:30 | 40.63117 | -73.77384 | 34 ft | 20 kts | 120° |
| 2026-05-08 05:30 | 40.63044 | -73.77222 | 33 ft | 21 kts | 121° |
| 2026-05-08 05:30 | 40.62970 | -73.77100 | 29 ft | 8 kts | 166° |
| 2026-05-08 05:31 | 40.62922 | -73.77107 | 29 ft | 6 kts | 209° |
| 2026-05-08 05:31 | 40.62901 | -73.77123 | 30 ft | 0 kts | 210° |
| 2026-05-08 05:32 | 40.62897 | -73.77126 | 30 ft | 1 kts | 210° |
| 2026-05-08 05:32 | 40.62883 | -73.77137 | 30 ft | 3 kts | 210° |
| 2026-05-08 05:32 | 40.62857 | -73.77157 | 30 ft | 5 kts | 210° |
| 2026-05-08 05:33 | 40.62829 | -73.77191 | 29 ft | 5 kts | 245° |
| 2026-05-08 05:33 | 40.62832 | -73.77241 | 28 ft | 6 kts | 287° |
| 2026-05-08 05:33 | 40.62876 | -73.77344 | 32 ft | 29 kts | 300° |
| 2026-05-08 05:33 | 40.63106 | -73.77852 | 34 ft | 101 kts | 301° |
| 2026-05-08 05:34 | 40.63586 | -73.78912 | 33 ft | 165 kts | 301° |
| 2026-05-08 05:34 | 40.64214 | -73.80315 | 542 ft | 180 kts | 300° |
| 2026-05-08 05:34 | 40.64748 | -73.81792 | 1379 ft | 180 kts | 282° |
| 2026-05-08 05:34 | 40.64575 | -73.83415 | 1876 ft | 187 kts | 242° |
| 2026-05-08 05:35 | 40.63617 | -73.84672 | 2054 ft | 206 kts | 217° |
| 2026-05-08 05:35 | 40.62522 | -73.85987 | 2344 ft | 220 kts | 229° |
| 2026-05-08 05:35 | 40.61641 | -73.87668 | 2783 ft | 225 kts | 244° |
| 2026-05-08 05:35 | 40.60877 | -73.89492 | 3189 ft | 236 kts | 241° |
| 2026-05-08 05:36 | 40.59805 | -73.91250 | 3479 ft | 252 kts | 220° |
| 2026-05-08 05:36 | 40.58232 | -73.92224 | 3956 ft | 259 kts | 189° |
| 2026-05-08 05:36 | 40.56459 | -73.91886 | 4512 ft | 265 kts | 154° |
| 2026-05-08 05:36 | 40.55095 | -73.90257 | 5027 ft | 272 kts | 121° |
| 2026-05-08 05:37 | 40.54511 | -73.87877 | 5549 ft | 278 kts | 97° |
| 2026-05-08 05:37 | 40.54173 | -73.85345 | 6070 ft | 283 kts | 107° |
| 2026-05-08 05:37 | 40.53566 | -73.82861 | 6619 ft | 288 kts | 110° |
| 2026-05-08 05:37 | 40.52975 | -73.80319 | 7184 ft | 294 kts | 101° |
| 2026-05-08 05:38 | 40.52777 | -73.77632 | 7780 ft | 298 kts | 92° |
| 2026-05-08 05:38 | 40.52764 | -73.74890 | 8375 ft | 303 kts | 88° |
| 2026-05-08 05:38 | 40.52855 | -73.72104 | 9003 ft | 307 kts | 85° |
| 2026-05-08 05:38 | 40.52999 | -73.69290 | 9627 ft | 311 kts | 84° |
| 2026-05-08 05:39 | 40.53161 | -73.66427 | 10182 ft | 317 kts | 84° |
| 2026-05-08 05:39 | 40.53325 | -73.63467 | 10469 ft | 333 kts | 84° |
| 2026-05-08 05:39 | 40.53486 | -73.60363 | 10734 ft | 349 kts | 85° |
| 2026-05-08 05:39 | 40.53642 | -73.57102 | 11008 ft | 365 kts | 85° |
| 2026-05-08 05:40 | 40.53792 | -73.53745 | 11283 ft | 380 kts | 85° |
| 2026-05-08 05:40 | 40.53944 | -73.50209 | 11557 ft | 394 kts | 86° |
| 2026-05-08 05:40 | 40.54098 | -73.46553 | 11850 ft | 407 kts | 86° |
| 2026-05-08 05:40 | 40.54253 | -73.42791 | 12289 ft | 415 kts | 86° |
| 2026-05-08 05:41 | 40.54411 | -73.38966 | 12799 ft | 421 kts | 86° |
| 2026-05-08 05:41 | 40.54571 | -73.35087 | 13299 ft | 427 kts | 86° |
| 2026-05-08 05:41 | 40.54731 | -73.31169 | 13806 ft | 432 kts | 86° |
| 2026-05-08 05:41 | 40.54895 | -73.27180 | 14225 ft | 439 kts | 88° |
| 2026-05-08 05:42 | 40.55057 | -73.23145 | 14702 ft | 443 kts | 88° |
| 2026-05-08 05:42 | 40.55218 | -73.19131 | 15177 ft | 447 kts | 88° |
| 2026-05-08 05:42 | 40.55382 | -73.15023 | 15623 ft | 452 kts | 89° |
| 2026-05-08 05:42 | 40.55545 | -73.10870 | 16077 ft | 457 kts | 89° |
| 2026-05-08 05:43 | 40.55709 | -73.06668 | 16527 ft | 462 kts | 90° |
| 2026-05-08 05:43 | 40.56009 | -73.02439 | 16964 ft | 469 kts | 82° |
| 2026-05-08 05:43 | 40.56746 | -72.98227 | 17398 ft | 475 kts | 76° |
| 2026-05-08 05:43 | 40.57688 | -72.94019 | 17820 ft | 481 kts | 74° |
| 2026-05-08 05:44 | 40.58735 | -72.89815 | 18270 ft | 486 kts | 73° |
| 2026-05-08 05:44 | 40.59836 | -72.85589 | 18647 ft | 491 kts | 72° |
| 2026-05-08 05:44 | 40.60960 | -72.81330 | 19083 ft | 494 kts | 72° |
| 2026-05-08 05:44 | 40.62086 | -72.77045 | 19527 ft | 498 kts | 72° |
| 2026-05-08 05:45 | 40.63195 | -72.72776 | 19974 ft | 501 kts | 72° |
| 2026-05-08 05:45 | 40.64319 | -72.68410 | 20408 ft | 505 kts | 72° |
| 2026-05-08 05:45 | 40.65443 | -72.64002 | 20856 ft | 509 kts | 72° |
| 2026-05-08 05:45 | 40.66570 | -72.59563 | 21314 ft | 513 kts | 73° |
| 2026-05-08 05:46 | 40.67701 | -72.55090 | 21789 ft | 516 kts | 73° |
| 2026-05-08 05:46 | 40.68837 | -72.50584 | 22236 ft | 519 kts | 73° |
| 2026-05-08 05:46 | 40.69980 | -72.46048 | 22658 ft | 524 kts | 73° |
| 2026-05-08 05:46 | 40.71128 | -72.41480 | 23074 ft | 527 kts | 73° |
| 2026-05-08 05:47 | 40.72284 | -72.36878 | 23505 ft | 531 kts | 73° |
| 2026-05-08 05:47 | 40.73449 | -72.32230 | 23855 ft | 535 kts | 73° |
| 2026-05-08 05:47 | 40.74620 | -72.27553 | 24237 ft | 538 kts | 73° |
| 2026-05-08 05:47 | 40.75795 | -72.22849 | 24588 ft | 541 kts | 72° |
| 2026-05-08 05:48 | 40.76972 | -72.18127 | 24989 ft | 543 kts | 72° |
| 2026-05-08 05:48 | 40.78138 | -72.13439 | 25355 ft | 546 kts | 72° |
| 2026-05-08 05:48 | 40.79325 | -72.08660 | 25758 ft | 549 kts | 73° |
| 2026-05-08 05:48 | 40.80516 | -72.03855 | 26048 ft | 553 kts | 73° |
| 2026-05-08 05:49 | 40.81714 | -71.99009 | 26407 ft | 556 kts | 72° |
| 2026-05-08 05:49 | 40.82915 | -71.94141 | 26760 ft | 559 kts | 72° |
| 2026-05-08 05:49 | 40.84123 | -71.89235 | 27080 ft | 561 kts | 72° |
| 2026-05-08 05:49 | 40.85329 | -71.84327 | 27512 ft | 562 kts | 72° |
| 2026-05-08 05:50 | 40.86537 | -71.79401 | 27863 ft | 565 kts | 72° |
| 2026-05-08 05:50 | 40.87748 | -71.74450 | 28174 ft | 568 kts | 72° |
| 2026-05-08 05:50 | 40.88967 | -71.69456 | 28490 ft | 570 kts | 72° |
| 2026-05-08 05:50 | 40.90168 | -71.64527 | 28793 ft | 573 kts | 72° |
| 2026-05-08 05:51 | 40.91388 | -71.59506 | 29120 ft | 575 kts | 72° |
| 2026-05-08 05:51 | 40.92616 | -71.54446 | 29360 ft | 579 kts | 72° |
| 2026-05-08 05:51 | 40.93842 | -71.49383 | 29749 ft | 579 kts | 73° |
| 2026-05-08 05:51 | 40.95069 | -71.44303 | 30035 ft | 580 kts | 73° |
| 2026-05-08 05:52 | 40.96296 | -71.39209 | 30324 ft | 581 kts | 73° |
| 2026-05-08 05:52 | 40.97518 | -71.34128 | 30664 ft | 580 kts | 73° |
| 2026-05-08 05:52 | 40.98738 | -71.29042 | 30959 ft | 580 kts | 73° |
| 2026-05-08 05:52 | 40.99960 | -71.23938 | 31259 ft | 579 kts | 73° |
| 2026-05-08 05:53 | 41.01171 | -71.18866 | 31552 ft | 579 kts | 73° |
| 2026-05-08 05:53 | 41.02384 | -71.13779 | 31836 ft | 578 kts | 73° |
| 2026-05-08 05:53 | 41.03590 | -71.08705 | 32145 ft | 578 kts | 73° |
| 2026-05-08 05:53 | 41.04799 | -71.03611 | 32436 ft | 577 kts | 73° |
| 2026-05-08 05:54 | 41.06002 | -70.98532 | 32719 ft | 576 kts | 73° |
| 2026-05-08 05:54 | 41.07184 | -70.93528 | 32857 ft | 579 kts | 73° |
| 2026-05-08 05:54 | 41.08390 | -70.88411 | 32864 ft | 583 kts | 73° |
| 2026-05-08 05:55 | 41.10806 | -70.78129 | 32860 ft | 582 kts | 74° |
| 2026-05-08 05:55 | 41.13203 | -70.67880 | 32850 ft | 582 kts | 74° |
| 2026-05-08 05:56 | 41.15589 | -70.57628 | 32854 ft | 582 kts | 74° |
| 2026-05-08 05:56 | 41.17973 | -70.47341 | 32847 ft | 582 kts | 74° |
| 2026-05-08 05:57 | 41.20333 | -70.37114 | 32845 ft | 582 kts | 74° |
| 2026-05-08 05:57 | 41.22695 | -70.26829 | 32841 ft | 582 kts | 75° |
| 2026-05-08 05:58 | 41.25045 | -70.16547 | 32834 ft | 582 kts | 75° |
| 2026-05-08 05:58 | 41.27328 | -70.06221 | 32845 ft | 581 kts | 80° |
| 2026-05-08 05:58 | 41.27905 | -70.00940 | 32842 ft | 574 kts | 91° |
| 2026-05-08 05:59 | 41.27941 | -69.95644 | 32838 ft | 570 kts | 96° |
| 2026-05-08 05:59 | 41.27643 | -69.85105 | 32785 ft | 568 kts | 98° |
| 2026-05-08 06:00 | 41.27199 | -69.74681 | 32837 ft | 568 kts | 98° |
| 2026-05-08 06:00 | 41.26755 | -69.64192 | 32832 ft | 568 kts | 98° |
| 2026-05-08 06:01 | 41.26330 | -69.53684 | 32829 ft | 568 kts | 98° |
| 2026-05-08 06:01 | 41.25907 | -69.43200 | 32830 ft | 567 kts | 98° |
| 2026-05-08 06:02 | 41.25479 | -69.32801 | 32827 ft | 566 kts | 98° |
| 2026-05-08 06:02 | 41.25036 | -69.22341 | 32822 ft | 566 kts | 98° |
| 2026-05-08 06:03 | 41.24585 | -69.11906 | 32827 ft | 565 kts | 99° |
| 2026-05-08 06:03 | 41.24125 | -69.01496 | 32823 ft | 564 kts | 99° |
| 2026-05-08 06:04 | 41.23734 | -68.92826 | 32821 ft | 564 kts | 99° |
| 2026-05-08 06:04 | 41.23257 | -68.82431 | 32802 ft | 564 kts | 99° |
| 2026-05-08 06:05 | 41.22773 | -68.72048 | 32815 ft | 561 kts | 99° |
| 2026-05-08 06:05 | 41.22280 | -68.61697 | 32815 ft | 561 kts | 100° |
| 2026-05-08 06:06 | 41.21777 | -68.51361 | 32775 ft | 560 kts | 100° |
| 2026-05-08 06:06 | 41.21270 | -68.41089 | 32812 ft | 559 kts | 100° |
| 2026-05-08 06:07 | 41.20752 | -68.30795 | 32798 ft | 559 kts | 100° |
| 2026-05-08 06:07 | 41.20223 | -68.20487 | 32814 ft | 559 kts | 100° |
| 2026-05-08 06:08 | 41.19686 | -68.10188 | 32807 ft | 557 kts | 100° |
| 2026-05-08 06:08 | 41.19143 | -67.99942 | 32806 ft | 556 kts | 100° |
| 2026-05-08 06:09 | 41.18593 | -67.89756 | 32802 ft | 556 kts | 100° |
| 2026-05-08 06:09 | 41.17931 | -67.79528 | 32802 ft | 555 kts | 102° |
| 2026-05-08 06:10 | 41.17126 | -67.69347 | 32803 ft | 554 kts | 103° |
| 2026-05-08 06:10 | 41.16321 | -67.59154 | 32799 ft | 555 kts | 102° |
| 2026-05-08 06:11 | 41.15533 | -67.48966 | 32792 ft | 554 kts | 102° |
| 2026-05-08 06:11 | 41.14757 | -67.38875 | 32793 ft | 552 kts | 102° |
| 2026-05-08 06:12 | 41.13969 | -67.28753 | 32793 ft | 551 kts | 103° |
| 2026-05-08 06:12 | 41.13170 | -67.18643 | 32775 ft | 550 kts | 102° |
| 2026-05-08 06:13 | 41.12365 | -67.08573 | 32788 ft | 548 kts | 102° |
| 2026-05-08 06:13 | 41.12203 | -66.98450 | 32783 ft | 560 kts | 87° |
| 2026-05-08 06:14 | 41.13793 | -66.88280 | 32738 ft | 565 kts | 80° |
| 2026-05-08 06:14 | 41.15725 | -66.78145 | 32781 ft | 564 kts | 79° |
| 2026-05-08 06:15 | 41.17674 | -66.68051 | 32779 ft | 564 kts | 79° |
| 2026-05-08 06:15 | 41.19579 | -66.57948 | 32782 ft | 563 kts | 80° |
| 2026-05-08 06:16 | 41.21438 | -66.47919 | 32777 ft | 562 kts | 80° |
| 2026-05-08 06:16 | 41.23292 | -66.37842 | 32772 ft | 561 kts | 80° |
| 2026-05-08 06:17 | 41.26055 | -66.22734 | 32738 ft | 561 kts | 80° |
| 2026-05-08 06:17 | 41.27890 | -66.12648 | 32808 ft | 560 kts | 80° |
| 2026-05-08 06:18 | 41.29711 | -66.02585 | 32765 ft | 559 kts | 81° |
| 2026-05-08 06:18 | 41.31510 | -65.92582 | 32709 ft | 558 kts | 81° |
| 2026-05-08 06:19 | 41.33310 | -65.82524 | 32756 ft | 558 kts | 81° |
| 2026-05-08 06:19 | 41.35098 | -65.72473 | 32756 ft | 557 kts | 81° |
| 2026-05-08 06:20 | 41.36878 | -65.62418 | 32785 ft | 557 kts | 81° |
| 2026-05-08 06:20 | 41.38636 | -65.52441 | 32769 ft | 555 kts | 82° |
| 2026-05-08 06:21 | 41.40386 | -65.42443 | 32752 ft | 554 kts | 82° |
| 2026-05-08 06:21 | 41.42127 | -65.32439 | 32748 ft | 554 kts | 83° |
| 2026-05-08 06:22 | 41.43857 | -65.22444 | 32750 ft | 552 kts | 83° |
| 2026-05-08 06:22 | 41.45563 | -65.12550 | 32762 ft | 550 kts | 83° |
| 2026-05-08 06:23 | 41.47263 | -65.02616 | 32746 ft | 549 kts | 83° |
| 2026-05-08 06:23 | 41.48954 | -64.92681 | 32735 ft | 550 kts | 83° |
| 2026-05-08 06:24 | 41.50645 | -64.82682 | 32744 ft | 553 kts | 83° |
| 2026-05-08 06:24 | 41.52330 | -64.72679 | 32741 ft | 553 kts | 83° |
| 2026-05-08 06:25 | 41.54009 | -64.62664 | 32751 ft | 552 kts | 84° |
| 2026-05-08 06:25 | 41.55666 | -64.52714 | 32738 ft | 552 kts | 84° |
| 2026-05-08 06:26 | 41.57320 | -64.42718 | 32735 ft | 552 kts | 84° |
| 2026-05-08 06:26 | 41.58967 | -64.32709 | 32716 ft | 552 kts | 84° |
| 2026-05-08 06:27 | 41.60611 | -64.22654 | 32730 ft | 554 kts | 84° |
| 2026-05-08 06:27 | 41.62248 | -64.12596 | 32731 ft | 553 kts | 84° |
| 2026-05-08 06:28 | 41.63874 | -64.02548 | 32703 ft | 552 kts | 84° |
| 2026-05-08 06:28 | 41.65490 | -63.92497 | 32726 ft | 553 kts | 84° |
| 2026-05-08 06:29 | 41.67099 | -63.82428 | 32725 ft | 553 kts | 85° |
| 2026-05-08 06:29 | 41.68689 | -63.72422 | 32682 ft | 552 kts | 84° |
| 2026-05-08 06:30 | 41.70280 | -63.62336 | 32729 ft | 555 kts | 84° |
| 2026-05-08 06:30 | 41.71863 | -63.52253 | 32715 ft | 555 kts | 84° |
| 2026-05-08 06:31 | 41.73445 | -63.42123 | 32683 ft | 555 kts | 84° |
| 2026-05-08 06:31 | 41.75018 | -63.31969 | 32717 ft | 557 kts | 84° |
| 2026-05-08 06:32 | 41.76587 | -63.21794 | 32728 ft | 557 kts | 84° |
| 2026-05-08 06:32 | 41.78135 | -63.11690 | 32712 ft | 556 kts | 85° |
| 2026-05-08 06:33 | 41.79685 | -63.01509 | 32702 ft | 556 kts | 84° |
| 2026-05-08 06:33 | 41.81224 | -62.91334 | 32708 ft | 556 kts | 84° |
| 2026-05-08 06:34 | 41.82749 | -62.81184 | 32708 ft | 556 kts | 84° |
| 2026-05-08 06:34 | 41.84258 | -62.71081 | 32705 ft | 556 kts | 84° |
| 2026-05-08 06:35 | 41.85769 | -62.60897 | 32670 ft | 556 kts | 84° |
| 2026-05-08 06:35 | 41.87271 | -62.50712 | 32701 ft | 556 kts | 84° |
| 2026-05-08 06:36 | 41.88763 | -62.40532 | 32707 ft | 556 kts | 84° |
| 2026-05-08 06:36 | 41.90245 | -62.30345 | 32705 ft | 556 kts | 84° |
| 2026-05-08 06:37 | 41.91719 | -62.20150 | 32693 ft | 556 kts | 84° |
| 2026-05-08 06:37 | 41.93185 | -62.09939 | 32698 ft | 556 kts | 84° |
| 2026-05-08 06:38 | 41.94630 | -61.99819 | 32696 ft | 554 kts | 84° |
| 2026-05-08 06:38 | 41.96074 | -61.89629 | 32693 ft | 554 kts | 84° |
| 2026-05-08 06:39 | 41.97506 | -61.79458 | 32684 ft | 554 kts | 84° |
| 2026-05-08 06:39 | 41.98930 | -61.69277 | 32668 ft | 553 kts | 84° |
| 2026-05-08 06:40 | 42.00342 | -61.59113 | 32687 ft | 553 kts | 84° |
| 2026-05-08 06:40 | 42.01745 | -61.48940 | 32693 ft | 552 kts | 84° |
| 2026-05-08 06:41 | 42.03139 | -61.38769 | 32689 ft | 553 kts | 84° |
| 2026-05-08 06:41 | 42.04524 | -61.28589 | 32690 ft | 552 kts | 84° |
| 2026-05-08 06:42 | 42.05897 | -61.18429 | 32684 ft | 551 kts | 83° |
| 2026-05-08 06:42 | 42.07249 | -61.08352 | 32692 ft | 550 kts | 83° |
| 2026-05-08 06:43 | 42.08602 | -60.98206 | 32691 ft | 550 kts | 84° |
| 2026-05-08 06:43 | 42.09946 | -60.88042 | 32682 ft | 550 kts | 84° |
| 2026-05-08 06:44 | 42.11279 | -60.77903 | 32684 ft | 549 kts | 84° |
| 2026-05-08 06:44 | 42.12593 | -60.67828 | 32684 ft | 549 kts | 84° |
| 2026-05-08 06:45 | 42.13904 | -60.57703 | 32685 ft | 549 kts | 84° |
| 2026-05-08 06:45 | 42.15207 | -60.47567 | 32682 ft | 549 kts | 84° |
| 2026-05-08 06:46 | 42.16503 | -60.37418 | 32690 ft | 549 kts | 84° |
| 2026-05-08 06:46 | 42.17788 | -60.27277 | 32679 ft | 547 kts | 84° |
| 2026-05-08 06:47 | 42.19061 | -60.17165 | 32683 ft | 545 kts | 84° |
| 2026-05-08 06:47 | 42.20317 | -60.07106 | 32686 ft | 545 kts | 84° |
| 2026-05-08 06:48 | 42.21569 | -59.97002 | 32686 ft | 545 kts | 84° |
| 2026-05-08 06:48 | 42.22810 | -59.86909 | 32690 ft | 545 kts | 84° |
| 2026-05-08 06:49 | 42.24044 | -59.76803 | 32694 ft | 545 kts | 84° |
| 2026-05-08 06:49 | 42.25267 | -59.66708 | 32694 ft | 545 kts | 84° |
| 2026-05-08 06:50 | 42.26474 | -59.56670 | 32702 ft | 545 kts | 84° |
| 2026-05-08 06:50 | 42.27682 | -59.46551 | 32702 ft | 545 kts | 85° |
| 2026-05-08 06:51 | 42.28877 | -59.36453 | 32689 ft | 544 kts | 85° |
| 2026-05-08 06:51 | 42.30062 | -59.26375 | 32708 ft | 541 kts | 85° |
| 2026-05-08 06:52 | 42.31037 | -59.18018 | 32719 ft | 541 kts | 85° |
| 2026-05-08 06:52 | 42.32198 | -59.07980 | 32719 ft | 541 kts | 85° |
| 2026-05-08 06:53 | 42.33353 | -58.97928 | 32727 ft | 541 kts | 85° |
| 2026-05-08 06:53 | 42.34498 | -58.87874 | 32716 ft | 541 kts | 84° |
| 2026-05-08 06:54 | 42.35628 | -58.77881 | 32733 ft | 541 kts | 84° |
| 2026-05-08 06:54 | 42.36757 | -58.67822 | 32733 ft | 541 kts | 85° |
| 2026-05-08 06:55 | 42.37876 | -58.57761 | 32741 ft | 541 kts | 85° |
| 2026-05-08 06:55 | 42.38987 | -58.47695 | 32741 ft | 541 kts | 85° |
| 2026-05-08 06:56 | 42.40087 | -58.37624 | 32750 ft | 544 kts | 84° |
| 2026-05-08 06:56 | 42.41189 | -58.27470 | 32756 ft | 546 kts | 84° |
| 2026-05-08 06:57 | 42.42279 | -58.17350 | 32742 ft | 546 kts | 84° |
| 2026-05-08 06:57 | 42.43368 | -58.07146 | 32747 ft | 546 kts | 84° |
| 2026-05-08 06:58 | 42.44445 | -57.96954 | 32772 ft | 546 kts | 84° |
| 2026-05-08 06:58 | 42.45506 | -57.86834 | 32772 ft | 546 kts | 84° |
| 2026-05-08 06:59 | 42.46563 | -57.76656 | 32768 ft | 546 kts | 84° |
| 2026-05-08 06:59 | 42.47612 | -57.66465 | 32777 ft | 546 kts | 85° |
| 2026-05-08 07:00 | 42.48652 | -57.56272 | 32773 ft | 546 kts | 85° |
| 2026-05-08 07:00 | 42.49684 | -57.46068 | 32763 ft | 546 kts | 85° |
| 2026-05-08 07:01 | 42.50708 | -57.35851 | 32781 ft | 546 kts | 85° |
| 2026-05-08 07:01 | 42.51715 | -57.25701 | 32786 ft | 547 kts | 85° |
| 2026-05-08 07:02 | 42.52721 | -57.15476 | 32783 ft | 546 kts | 85° |
| 2026-05-08 07:02 | 42.53717 | -57.05250 | 32796 ft | 546 kts | 85° |
| 2026-05-08 07:03 | 42.54703 | -56.95034 | 32794 ft | 547 kts | 85° |
| 2026-05-08 07:03 | 42.55681 | -56.84809 | 32801 ft | 546 kts | 85° |
| 2026-05-08 07:04 | 42.56643 | -56.74650 | 32798 ft | 546 kts | 85° |
| 2026-05-08 07:04 | 42.57603 | -56.64413 | 32805 ft | 546 kts | 85° |
| 2026-05-08 07:05 | 42.58552 | -56.54194 | 32805 ft | 546 kts | 85° |
| 2026-05-08 07:05 | 42.59495 | -56.43947 | 32823 ft | 545 kts | 85° |
| 2026-05-08 07:06 | 42.60418 | -56.33808 | 32811 ft | 545 kts | 86° |
| 2026-05-08 07:06 | 42.61338 | -56.23595 | 32812 ft | 545 kts | 86° |
| 2026-05-08 07:07 | 42.62250 | -56.13369 | 32818 ft | 545 kts | 86° |
| 2026-05-08 07:07 | 42.63152 | -56.03153 | 32823 ft | 545 kts | 86° |
| 2026-05-08 07:08 | 42.64045 | -55.92943 | 32830 ft | 545 kts | 86° |